sensor_id;sensor_type;location;lat;lon;timestamp;P1;durP1;ratioP1;P2;durP2;ratioP2
18100;SDS011;9177;49.156;8.142;2023-02-28T00:01:18;12.60;;;6.60;;
18100;SDS011;9177;49.156;8.142;2023-02-28T00:03:45;9.50;;;5.87;;
18100;SDS011;9177;49.156;8.142;2023-02-28T00:06:12;12.57;;;6.23;;
18100;SDS011;9177;49.156;8.142;2023-02-28T00:08:39;10.63;;;5.77;;
18100;SDS011;9177;49.156;8.142;2023-02-28T00:11:07;10.10;;;6.00;;
18100;SDS011;9177;49.156;8.142;2023-02-28T00:13:37;8.63;;;5.13;;
18100;SDS011;9177;49.156;8.142;2023-02-28T00:16:07;9.97;;;5.30;;
18100;SDS011;9177;49.156;8.142;2023-02-28T00:18:36;9.03;;;5.10;;
18100;SDS011;9177;49.156;8.142;2023-02-28T00:21:04;9.77;;;5.73;;
18100;SDS011;9177;49.156;8.142;2023-02-28T00:23:31;9.60;;;5.97;;
18100;SDS011;9177;49.156;8.142;2023-02-28T00:25:58;8.93;;;5.30;;
18100;SDS011;9177;49.156;8.142;2023-02-28T00:28:25;8.30;;;5.57;;
18100;SDS011;9177;49.156;8.142;2023-02-28T00:30:51;8.87;;;5.47;;
18100;SDS011;9177;49.156;8.142;2023-02-28T00:33:20;10.50;;;5.30;;
18100;SDS011;9177;49.156;8.142;2023-02-28T00:35:47;7.67;;;5.10;;
18100;SDS011;9177;49.156;8.142;2023-02-28T00:38:14;9.67;;;5.20;;
18100;SDS011;9177;49.156;8.142;2023-02-28T00:40:41;7.20;;;5.17;;
18100;SDS011;9177;49.156;8.142;2023-02-28T00:43:08;8.47;;;5.10;;
18100;SDS011;9177;49.156;8.142;2023-02-28T00:45:35;9.03;;;5.53;;
18100;SDS011;9177;49.156;8.142;2023-02-28T00:48:02;8.33;;;5.10;;
18100;SDS011;9177;49.156;8.142;2023-02-28T00:50:31;9.90;;;5.37;;
18100;SDS011;9177;49.156;8.142;2023-02-28T00:52:58;7.53;;;4.93;;
18100;SDS011;9177;49.156;8.142;2023-02-28T00:55:24;6.67;;;4.60;;
18100;SDS011;9177;49.156;8.142;2023-02-28T00:57:51;9.47;;;4.93;;
18100;SDS011;9177;49.156;8.142;2023-02-28T01:00:18;9.40;;;5.07;;
18100;SDS011;9177;49.156;8.142;2023-02-28T01:02:45;7.70;;;4.80;;
18100;SDS011;9177;49.156;8.142;2023-02-28T01:05:12;8.00;;;4.87;;
18100;SDS011;9177;49.156;8.142;2023-02-28T01:07:41;8.13;;;4.67;;
18100;SDS011;9177;49.156;8.142;2023-02-28T01:10:08;7.73;;;4.33;;
18100;SDS011;9177;49.156;8.142;2023-02-28T01:12:35;6.93;;;4.53;;
18100;SDS011;9177;49.156;8.142;2023-02-28T01:15:03;7.97;;;4.63;;
18100;SDS011;9177;49.156;8.142;2023-02-28T01:17:30;6.60;;;4.17;;
18100;SDS011;9177;49.156;8.142;2023-02-28T01:19:57;8.07;;;4.73;;
18100;SDS011;9177;49.156;8.142;2023-02-28T01:22:23;10.67;;;4.77;;
18100;SDS011;9177;49.156;8.142;2023-02-28T01:24:52;8.63;;;5.27;;
18100;SDS011;9177;49.156;8.142;2023-02-28T01:27:19;6.47;;;4.03;;
18100;SDS011;9177;49.156;8.142;2023-02-28T01:29:48;6.63;;;4.10;;
18100;SDS011;9177;49.156;8.142;2023-02-28T01:32:16;7.83;;;4.80;;
18100;SDS011;9177;49.156;8.142;2023-02-28T01:34:43;7.37;;;4.20;;
18100;SDS011;9177;49.156;8.142;2023-02-28T01:37:10;7.70;;;4.63;;
18100;SDS011;9177;49.156;8.142;2023-02-28T01:39:37;8.07;;;4.27;;
18100;SDS011;9177;49.156;8.142;2023-02-28T01:42:05;7.57;;;4.10;;
18100;SDS011;9177;49.156;8.142;2023-02-28T01:47:23;7.57;;;4.33;;
18100;SDS011;9177;49.156;8.142;2023-02-28T01:49:51;7.03;;;4.13;;
18100;SDS011;9177;49.156;8.142;2023-02-28T01:52:18;7.80;;;3.80;;
18100;SDS011;9177;49.156;8.142;2023-02-28T01:54:47;6.00;;;4.23;;
18100;SDS011;9177;49.156;8.142;2023-02-28T01:57:19;7.93;;;4.53;;
18100;SDS011;9177;49.156;8.142;2023-02-28T01:59:50;5.73;;;3.77;;
18100;SDS011;9177;49.156;8.142;2023-02-28T02:02:20;5.97;;;3.77;;
18100;SDS011;9177;49.156;8.142;2023-02-28T02:04:50;4.93;;;3.67;;
18100;SDS011;9177;49.156;8.142;2023-02-28T02:07:19;6.07;;;4.07;;
18100;SDS011;9177;49.156;8.142;2023-02-28T02:09:47;5.87;;;3.67;;
18100;SDS011;9177;49.156;8.142;2023-02-28T02:12:17;5.60;;;3.70;;
18100;SDS011;9177;49.156;8.142;2023-02-28T02:14:56;5.47;;;3.80;;
18100;SDS011;9177;49.156;8.142;2023-02-28T02:17:32;7.10;;;4.13;;
18100;SDS011;9177;49.156;8.142;2023-02-28T02:20:16;8.37;;;3.87;;
18100;SDS011;9177;49.156;8.142;2023-02-28T02:26:21;4.83;;;3.33;;
18100;SDS011;9177;49.156;8.142;2023-02-28T02:29:16;5.97;;;3.60;;
18100;SDS011;9177;49.156;8.142;2023-02-28T02:32:07;5.47;;;3.60;;
18100;SDS011;9177;49.156;8.142;2023-02-28T02:34:52;5.30;;;3.60;;
18100;SDS011;9177;49.156;8.142;2023-02-28T02:37:27;5.67;;;3.47;;
18100;SDS011;9177;49.156;8.142;2023-02-28T02:40:04;6.07;;;3.33;;
18100;SDS011;9177;49.156;8.142;2023-02-28T02:42:39;4.77;;;3.37;;
18100;SDS011;9177;49.156;8.142;2023-02-28T02:45:11;5.23;;;3.37;;
18100;SDS011;9177;49.156;8.142;2023-02-28T02:47:42;5.67;;;3.33;;
18100;SDS011;9177;49.156;8.142;2023-02-28T02:50:13;5.27;;;3.43;;
18100;SDS011;9177;49.156;8.142;2023-02-28T02:52:44;5.03;;;3.50;;
18100;SDS011;9177;49.156;8.142;2023-02-28T02:55:14;5.60;;;3.50;;
18100;SDS011;9177;49.156;8.142;2023-02-28T02:57:44;5.57;;;3.70;;
18100;SDS011;9177;49.156;8.142;2023-02-28T03:00:14;5.07;;;3.23;;
18100;SDS011;9177;49.156;8.142;2023-02-28T03:02:42;5.30;;;3.60;;
18100;SDS011;9177;49.156;8.142;2023-02-28T03:05:14;4.50;;;3.20;;
18100;SDS011;9177;49.156;8.142;2023-02-28T03:07:47;6.73;;;3.70;;
18100;SDS011;9177;49.156;8.142;2023-02-28T03:10:32;5.20;;;3.53;;
18100;SDS011;9177;49.156;8.142;2023-02-28T03:16:15;4.13;;;2.93;;
18100;SDS011;9177;49.156;8.142;2023-02-28T03:18:54;5.27;;;3.23;;
18100;SDS011;9177;49.156;8.142;2023-02-28T03:21:32;4.80;;;3.10;;
18100;SDS011;9177;49.156;8.142;2023-02-28T03:24:05;5.90;;;3.47;;
18100;SDS011;9177;49.156;8.142;2023-02-28T03:26:38;5.27;;;3.40;;
18100;SDS011;9177;49.156;8.142;2023-02-28T03:29:10;5.27;;;3.13;;
18100;SDS011;9177;49.156;8.142;2023-02-28T03:31:43;4.30;;;3.10;;
18100;SDS011;9177;49.156;8.142;2023-02-28T03:34:15;4.43;;;2.97;;
18100;SDS011;9177;49.156;8.142;2023-02-28T03:36:48;4.57;;;3.07;;
18100;SDS011;9177;49.156;8.142;2023-02-28T03:39:19;4.80;;;3.00;;
18100;SDS011;9177;49.156;8.142;2023-02-28T03:41:48;4.17;;;3.13;;
18100;SDS011;9177;49.156;8.142;2023-02-28T03:44:20;4.50;;;2.93;;
18100;SDS011;9177;49.156;8.142;2023-02-28T03:46:54;3.87;;;2.77;;
18100;SDS011;9177;49.156;8.142;2023-02-28T03:49:27;5.20;;;3.33;;
18100;SDS011;9177;49.156;8.142;2023-02-28T03:52:01;5.10;;;3.17;;
18100;SDS011;9177;49.156;8.142;2023-02-28T03:54:30;4.17;;;2.70;;
18100;SDS011;9177;49.156;8.142;2023-02-28T03:57:02;3.67;;;2.50;;
18100;SDS011;9177;49.156;8.142;2023-02-28T03:59:34;4.00;;;2.90;;
18100;SDS011;9177;49.156;8.142;2023-02-28T04:02:04;3.80;;;2.93;;
18100;SDS011;9177;49.156;8.142;2023-02-28T04:04:31;4.33;;;2.73;;
18100;SDS011;9177;49.156;8.142;2023-02-28T04:07:03;4.70;;;2.93;;
18100;SDS011;9177;49.156;8.142;2023-02-28T04:09:31;4.23;;;2.70;;
18100;SDS011;9177;49.156;8.142;2023-02-28T04:11:58;5.57;;;2.67;;
18100;SDS011;9177;49.156;8.142;2023-02-28T04:14:25;4.13;;;2.93;;
18100;SDS011;9177;49.156;8.142;2023-02-28T04:16:52;5.50;;;2.73;;
18100;SDS011;9177;49.156;8.142;2023-02-28T04:19:19;3.90;;;2.80;;
18100;SDS011;9177;49.156;8.142;2023-02-28T04:21:46;4.07;;;2.77;;
18100;SDS011;9177;49.156;8.142;2023-02-28T04:24:16;4.37;;;2.80;;
18100;SDS011;9177;49.156;8.142;2023-02-28T04:26:45;4.30;;;2.80;;
18100;SDS011;9177;49.156;8.142;2023-02-28T04:29:13;3.83;;;2.50;;
18100;SDS011;9177;49.156;8.142;2023-02-28T04:31:44;3.47;;;2.60;;
18100;SDS011;9177;49.156;8.142;2023-02-28T04:34:11;3.67;;;2.50;;
18100;SDS011;9177;49.156;8.142;2023-02-28T04:36:38;3.43;;;2.53;;
18100;SDS011;9177;49.156;8.142;2023-02-28T04:39:05;3.73;;;2.40;;
18100;SDS011;9177;49.156;8.142;2023-02-28T04:41:33;3.63;;;2.73;;
18100;SDS011;9177;49.156;8.142;2023-02-28T04:44:01;4.97;;;2.57;;
18100;SDS011;9177;49.156;8.142;2023-02-28T04:46:27;3.50;;;2.37;;
18100;SDS011;9177;49.156;8.142;2023-02-28T04:48:55;5.03;;;2.97;;
18100;SDS011;9177;49.156;8.142;2023-02-28T04:51:23;3.40;;;2.23;;
18100;SDS011;9177;49.156;8.142;2023-02-28T04:53:50;3.00;;;2.30;;
18100;SDS011;9177;49.156;8.142;2023-02-28T04:56:17;3.23;;;2.40;;
18100;SDS011;9177;49.156;8.142;2023-02-28T04:58:46;2.83;;;2.20;;
18100;SDS011;9177;49.156;8.142;2023-02-28T05:01:18;3.47;;;2.50;;
18100;SDS011;9177;49.156;8.142;2023-02-28T05:03:47;3.40;;;2.23;;
18100;SDS011;9177;49.156;8.142;2023-02-28T05:06:15;4.17;;;2.60;;
18100;SDS011;9177;49.156;8.142;2023-02-28T05:08:42;4.17;;;2.50;;
18100;SDS011;9177;49.156;8.142;2023-02-28T05:11:12;3.70;;;2.40;;
18100;SDS011;9177;49.156;8.142;2023-02-28T05:13:41;3.47;;;2.40;;
18100;SDS011;9177;49.156;8.142;2023-02-28T05:16:10;2.77;;;2.17;;
18100;SDS011;9177;49.156;8.142;2023-02-28T05:18:37;4.03;;;2.53;;
18100;SDS011;9177;49.156;8.142;2023-02-28T05:21:04;2.80;;;2.27;;
18100;SDS011;9177;49.156;8.142;2023-02-28T05:23:31;3.50;;;2.30;;
18100;SDS011;9177;49.156;8.142;2023-02-28T05:25:58;3.27;;;2.20;;
18100;SDS011;9177;49.156;8.142;2023-02-28T05:28:25;3.53;;;2.40;;
18100;SDS011;9177;49.156;8.142;2023-02-28T05:30:52;3.07;;;2.40;;
18100;SDS011;9177;49.156;8.142;2023-02-28T05:33:20;3.07;;;2.17;;
18100;SDS011;9177;49.156;8.142;2023-02-28T05:35:47;3.73;;;2.27;;
18100;SDS011;9177;49.156;8.142;2023-02-28T05:38:14;2.93;;;2.17;;
18100;SDS011;9177;49.156;8.142;2023-02-28T05:40:42;3.40;;;2.10;;
18100;SDS011;9177;49.156;8.142;2023-02-28T05:43:10;3.20;;;2.20;;
18100;SDS011;9177;49.156;8.142;2023-02-28T05:45:37;3.13;;;2.30;;
18100;SDS011;9177;49.156;8.142;2023-02-28T05:48:04;3.20;;;2.30;;
18100;SDS011;9177;49.156;8.142;2023-02-28T05:50:33;3.07;;;2.13;;
18100;SDS011;9177;49.156;8.142;2023-02-28T05:53:00;2.80;;;1.90;;
18100;SDS011;9177;49.156;8.142;2023-02-28T05:55:27;3.30;;;2.27;;
18100;SDS011;9177;49.156;8.142;2023-02-28T05:57:53;2.73;;;2.10;;
18100;SDS011;9177;49.156;8.142;2023-02-28T06:00:21;2.80;;;2.10;;
18100;SDS011;9177;49.156;8.142;2023-02-28T06:02:48;3.37;;;2.20;;
18100;SDS011;9177;49.156;8.142;2023-02-28T06:05:17;3.07;;;2.13;;
18100;SDS011;9177;49.156;8.142;2023-02-28T06:07:45;3.37;;;2.10;;
18100;SDS011;9177;49.156;8.142;2023-02-28T06:10:12;3.13;;;2.20;;
18100;SDS011;9177;49.156;8.142;2023-02-28T06:12:40;3.03;;;1.93;;
18100;SDS011;9177;49.156;8.142;2023-02-28T06:15:07;3.70;;;2.23;;
18100;SDS011;9177;49.156;8.142;2023-02-28T06:17:39;2.73;;;2.00;;
18100;SDS011;9177;49.156;8.142;2023-02-28T06:20:07;2.10;;;1.70;;
18100;SDS011;9177;49.156;8.142;2023-02-28T06:22:35;2.43;;;2.00;;
18100;SDS011;9177;49.156;8.142;2023-02-28T06:25:04;2.80;;;2.00;;
18100;SDS011;9177;49.156;8.142;2023-02-28T06:27:32;3.00;;;2.30;;
18100;SDS011;9177;49.156;8.142;2023-02-28T06:30:00;2.10;;;1.90;;
18100;SDS011;9177;49.156;8.142;2023-02-28T06:32:26;2.70;;;1.90;;
18100;SDS011;9177;49.156;8.142;2023-02-28T06:34:54;2.43;;;1.80;;
18100;SDS011;9177;49.156;8.142;2023-02-28T06:37:23;2.33;;;1.90;;
18100;SDS011;9177;49.156;8.142;2023-02-28T06:39:51;2.60;;;1.93;;
18100;SDS011;9177;49.156;8.142;2023-02-28T06:42:19;2.47;;;1.90;;
18100;SDS011;9177;49.156;8.142;2023-02-28T06:44:46;2.60;;;1.90;;
18100;SDS011;9177;49.156;8.142;2023-02-28T06:47:13;2.47;;;1.87;;
18100;SDS011;9177;49.156;8.142;2023-02-28T06:49:40;2.40;;;1.90;;
18100;SDS011;9177;49.156;8.142;2023-02-28T06:52:07;2.23;;;1.83;;
18100;SDS011;9177;49.156;8.142;2023-02-28T06:54:36;2.87;;;2.20;;
18100;SDS011;9177;49.156;8.142;2023-02-28T06:57:03;2.50;;;1.93;;
18100;SDS011;9177;49.156;8.142;2023-02-28T06:59:31;2.93;;;2.10;;
18100;SDS011;9177;49.156;8.142;2023-02-28T07:01:58;4.00;;;2.00;;
18100;SDS011;9177;49.156;8.142;2023-02-28T07:04:25;2.30;;;1.73;;
18100;SDS011;9177;49.156;8.142;2023-02-28T07:06:52;1.83;;;1.63;;
18100;SDS011;9177;49.156;8.142;2023-02-28T07:09:21;2.67;;;1.90;;
18100;SDS011;9177;49.156;8.142;2023-02-28T07:11:47;2.83;;;2.00;;
18100;SDS011;9177;49.156;8.142;2023-02-28T07:14:14;2.67;;;1.70;;
18100;SDS011;9177;49.156;8.142;2023-02-28T07:16:43;2.17;;;1.60;;
18100;SDS011;9177;49.156;8.142;2023-02-28T07:19:10;2.33;;;1.97;;
18100;SDS011;9177;49.156;8.142;2023-02-28T07:21:37;2.07;;;1.83;;
18100;SDS011;9177;49.156;8.142;2023-02-28T07:24:04;2.73;;;1.87;;
18100;SDS011;9177;49.156;8.142;2023-02-28T07:26:32;2.33;;;1.70;;
18100;SDS011;9177;49.156;8.142;2023-02-28T07:29:00;3.27;;;1.90;;
18100;SDS011;9177;49.156;8.142;2023-02-28T07:31:27;2.00;;;1.60;;
18100;SDS011;9177;49.156;8.142;2023-02-28T07:33:55;3.17;;;1.90;;
18100;SDS011;9177;49.156;8.142;2023-02-28T07:36:22;2.07;;;1.70;;
18100;SDS011;9177;49.156;8.142;2023-02-28T07:38:49;2.53;;;1.80;;
18100;SDS011;9177;49.156;8.142;2023-02-28T07:41:16;2.17;;;1.47;;
18100;SDS011;9177;49.156;8.142;2023-02-28T07:43:43;2.17;;;1.83;;
18100;SDS011;9177;49.156;8.142;2023-02-28T07:46:11;2.50;;;1.60;;
18100;SDS011;9177;49.156;8.142;2023-02-28T07:48:40;1.77;;;1.50;;
18100;SDS011;9177;49.156;8.142;2023-02-28T07:51:08;3.13;;;1.67;;
18100;SDS011;9177;49.156;8.142;2023-02-28T07:53:35;2.80;;;2.00;;
18100;SDS011;9177;49.156;8.142;2023-02-28T07:56:02;2.10;;;1.80;;
18100;SDS011;9177;49.156;8.142;2023-02-28T07:58:30;2.03;;;1.70;;
18100;SDS011;9177;49.156;8.142;2023-02-28T08:00:57;2.87;;;1.90;;
18100;SDS011;9177;49.156;8.142;2023-02-28T08:03:31;2.07;;;1.60;;
18100;SDS011;9177;49.156;8.142;2023-02-28T08:05:58;2.07;;;1.60;;
18100;SDS011;9177;49.156;8.142;2023-02-28T08:08:26;2.37;;;1.73;;
18100;SDS011;9177;49.156;8.142;2023-02-28T08:10:54;2.60;;;1.70;;
18100;SDS011;9177;49.156;8.142;2023-02-28T08:13:20;2.13;;;1.60;;
18100;SDS011;9177;49.156;8.142;2023-02-28T08:15:48;1.77;;;1.40;;
18100;SDS011;9177;49.156;8.142;2023-02-28T08:18:14;2.33;;;1.70;;
18100;SDS011;9177;49.156;8.142;2023-02-28T08:20:41;2.53;;;1.67;;
18100;SDS011;9177;49.156;8.142;2023-02-28T08:23:08;2.23;;;1.70;;
18100;SDS011;9177;49.156;8.142;2023-02-28T08:25:36;2.40;;;1.60;;
18100;SDS011;9177;49.156;8.142;2023-02-28T08:28:03;2.70;;;1.67;;
18100;SDS011;9177;49.156;8.142;2023-02-28T08:30:30;3.10;;;1.80;;
18100;SDS011;9177;49.156;8.142;2023-02-28T08:32:57;2.97;;;1.50;;
18100;SDS011;9177;49.156;8.142;2023-02-28T08:35:24;1.60;;;1.50;;
18100;SDS011;9177;49.156;8.142;2023-02-28T08:37:51;1.80;;;1.47;;
18100;SDS011;9177;49.156;8.142;2023-02-28T08:40:18;1.80;;;1.33;;
18100;SDS011;9177;49.156;8.142;2023-02-28T08:42:46;1.97;;;1.53;;
18100;SDS011;9177;49.156;8.142;2023-02-28T08:45:14;1.73;;;1.63;;
18100;SDS011;9177;49.156;8.142;2023-02-28T08:47:41;1.90;;;1.53;;
18100;SDS011;9177;49.156;8.142;2023-02-28T08:50:08;2.77;;;1.50;;
18100;SDS011;9177;49.156;8.142;2023-02-28T08:52:36;3.17;;;1.80;;
18100;SDS011;9177;49.156;8.142;2023-02-28T08:55:04;1.60;;;1.40;;
18100;SDS011;9177;49.156;8.142;2023-02-28T08:57:31;1.70;;;1.40;;
18100;SDS011;9177;49.156;8.142;2023-02-28T09:00:00;2.27;;;1.60;;
18100;SDS011;9177;49.156;8.142;2023-02-28T09:02:29;1.97;;;1.50;;
18100;SDS011;9177;49.156;8.142;2023-02-28T09:04:56;3.77;;;1.70;;
18100;SDS011;9177;49.156;8.142;2023-02-28T09:07:23;2.33;;;1.50;;
18100;SDS011;9177;49.156;8.142;2023-02-28T09:09:50;1.33;;;1.20;;
18100;SDS011;9177;49.156;8.142;2023-02-28T09:12:20;3.03;;;1.73;;
18100;SDS011;9177;49.156;8.142;2023-02-28T09:14:48;2.30;;;1.27;;
18100;SDS011;9177;49.156;8.142;2023-02-28T09:17:16;2.30;;;1.47;;
18100;SDS011;9177;49.156;8.142;2023-02-28T09:19:43;2.17;;;1.47;;
18100;SDS011;9177;49.156;8.142;2023-02-28T09:22:10;2.17;;;1.60;;
18100;SDS011;9177;49.156;8.142;2023-02-28T09:24:37;1.87;;;1.60;;
18100;SDS011;9177;49.156;8.142;2023-02-28T09:27:04;1.93;;;1.57;;
18100;SDS011;9177;49.156;8.142;2023-02-28T09:29:32;2.10;;;1.70;;
18100;SDS011;9177;49.156;8.142;2023-02-28T09:32:00;1.63;;;1.47;;
18100;SDS011;9177;49.156;8.142;2023-02-28T09:34:28;1.90;;;1.60;;
18100;SDS011;9177;49.156;8.142;2023-02-28T09:36:56;1.43;;;1.23;;
18100;SDS011;9177;49.156;8.142;2023-02-28T09:39:23;1.87;;;1.50;;
18100;SDS011;9177;49.156;8.142;2023-02-28T09:41:52;1.90;;;1.70;;
18100;SDS011;9177;49.156;8.142;2023-02-28T09:44:21;1.60;;;1.27;;
18100;SDS011;9177;49.156;8.142;2023-02-28T09:46:53;3.00;;;1.70;;
18100;SDS011;9177;49.156;8.142;2023-02-28T09:49:25;1.73;;;1.50;;
18100;SDS011;9177;49.156;8.142;2023-02-28T09:52:01;1.33;;;1.20;;
18100;SDS011;9177;49.156;8.142;2023-02-28T09:54:31;2.03;;;1.30;;
18100;SDS011;9177;49.156;8.142;2023-02-28T09:56:59;2.30;;;1.53;;
18100;SDS011;9177;49.156;8.142;2023-02-28T09:59:36;1.90;;;1.47;;
18100;SDS011;9177;49.156;8.142;2023-02-28T10:02:13;2.23;;;1.70;;
18100;SDS011;9177;49.156;8.142;2023-02-28T10:04:52;1.63;;;1.43;;
18100;SDS011;9177;49.156;8.142;2023-02-28T10:07:27;1.60;;;1.37;;
18100;SDS011;9177;49.156;8.142;2023-02-28T10:10:07;1.80;;;1.50;;
18100;SDS011;9177;49.156;8.142;2023-02-28T10:12:48;1.93;;;1.50;;
18100;SDS011;9177;49.156;8.142;2023-02-28T10:15:18;1.80;;;1.40;;
18100;SDS011;9177;49.156;8.142;2023-02-28T10:17:49;1.57;;;1.30;;
18100;SDS011;9177;49.156;8.142;2023-02-28T10:20:22;1.80;;;1.40;;
18100;SDS011;9177;49.156;8.142;2023-02-28T10:22:57;2.53;;;1.60;;
18100;SDS011;9177;49.156;8.142;2023-02-28T10:25:27;2.50;;;1.70;;
18100;SDS011;9177;49.156;8.142;2023-02-28T10:27:56;2.20;;;1.40;;
18100;SDS011;9177;49.156;8.142;2023-02-28T10:30:27;1.60;;;1.40;;
18100;SDS011;9177;49.156;8.142;2023-02-28T10:32:54;1.63;;;1.47;;
18100;SDS011;9177;49.156;8.142;2023-02-28T10:35:23;1.97;;;1.50;;
18100;SDS011;9177;49.156;8.142;2023-02-28T10:37:53;1.53;;;1.30;;
18100;SDS011;9177;49.156;8.142;2023-02-28T10:40:28;1.53;;;1.40;;
18100;SDS011;9177;49.156;8.142;2023-02-28T10:42:57;1.80;;;1.70;;
18100;SDS011;9177;49.156;8.142;2023-02-28T10:45:26;2.10;;;1.40;;
18100;SDS011;9177;49.156;8.142;2023-02-28T10:47:58;1.80;;;1.30;;
18100;SDS011;9177;49.156;8.142;2023-02-28T10:50:32;1.77;;;1.40;;
18100;SDS011;9177;49.156;8.142;2023-02-28T10:56:02;1.67;;;1.40;;
18100;SDS011;9177;49.156;8.142;2023-02-28T10:58:40;1.90;;;1.57;;
18100;SDS011;9177;49.156;8.142;2023-02-28T11:01:13;1.37;;;1.20;;
18100;SDS011;9177;49.156;8.142;2023-02-28T11:03:42;1.93;;;1.33;;
18100;SDS011;9177;49.156;8.142;2023-02-28T11:06:13;1.70;;;1.30;;
18100;SDS011;9177;49.156;8.142;2023-02-28T11:08:43;1.67;;;1.40;;
18100;SDS011;9177;49.156;8.142;2023-02-28T11:11:15;1.67;;;1.50;;
18100;SDS011;9177;49.156;8.142;2023-02-28T11:13:43;1.37;;;1.27;;
18100;SDS011;9177;49.156;8.142;2023-02-28T11:16:13;1.73;;;1.50;;
18100;SDS011;9177;49.156;8.142;2023-02-28T11:18:42;1.50;;;1.40;;
18100;SDS011;9177;49.156;8.142;2023-02-28T11:21:18;1.60;;;1.50;;
18100;SDS011;9177;49.156;8.142;2023-02-28T11:23:49;2.13;;;1.70;;
18100;SDS011;9177;49.156;8.142;2023-02-28T11:29:09;1.97;;;1.50;;
18100;SDS011;9177;49.156;8.142;2023-02-28T11:31:38;1.67;;;1.07;;
18100;SDS011;9177;49.156;8.142;2023-02-28T11:36:51;1.97;;;1.40;;
18100;SDS011;9177;49.156;8.142;2023-02-28T11:39:20;1.73;;;1.37;;
18100;SDS011;9177;49.156;8.142;2023-02-28T11:41:52;1.10;;;1.00;;
18100;SDS011;9177;49.156;8.142;2023-02-28T11:44:43;2.10;;;1.23;;
18100;SDS011;9177;49.156;8.142;2023-02-28T11:47:23;1.40;;;1.30;;
18100;SDS011;9177;49.156;8.142;2023-02-28T11:50:04;1.83;;;1.57;;
18100;SDS011;9177;49.156;8.142;2023-02-28T11:52:48;1.80;;;1.17;;
18100;SDS011;9177;49.156;8.142;2023-02-28T11:55:19;1.50;;;1.20;;
18100;SDS011;9177;49.156;8.142;2023-02-28T12:00:57;2.50;;;1.57;;
18100;SDS011;9177;49.156;8.142;2023-02-28T12:03:35;6.73;;;1.60;;
18100;SDS011;9177;49.156;8.142;2023-02-28T12:06:14;4.97;;;1.90;;
18100;SDS011;9177;49.156;8.142;2023-02-28T12:08:54;8.20;;;1.90;;
18100;SDS011;9177;49.156;8.142;2023-02-28T12:11:38;10.67;;;1.90;;
18100;SDS011;9177;49.156;8.142;2023-02-28T12:14:22;9.83;;;2.33;;
18100;SDS011;9177;49.156;8.142;2023-02-28T12:17:04;13.60;;;2.60;;
18100;SDS011;9177;49.156;8.142;2023-02-28T12:19:42;9.83;;;1.90;;
18100;SDS011;9177;49.156;8.142;2023-02-28T12:22:28;11.93;;;2.00;;
18100;SDS011;9177;49.156;8.142;2023-02-28T12:27:50;5.87;;;2.07;;
18100;SDS011;9177;49.156;8.142;2023-02-28T12:30:19;7.03;;;1.93;;
18100;SDS011;9177;49.156;8.142;2023-02-28T12:32:51;7.07;;;2.20;;
18100;SDS011;9177;49.156;8.142;2023-02-28T12:35:23;8.30;;;1.90;;
18100;SDS011;9177;49.156;8.142;2023-02-28T12:37:56;8.87;;;2.20;;
18100;SDS011;9177;49.156;8.142;2023-02-28T12:40:31;6.00;;;2.10;;
18100;SDS011;9177;49.156;8.142;2023-02-28T12:43:07;7.00;;;2.37;;
18100;SDS011;9177;49.156;8.142;2023-02-28T12:45:39;8.63;;;2.00;;
18100;SDS011;9177;49.156;8.142;2023-02-28T12:48:09;6.10;;;2.60;;
18100;SDS011;9177;49.156;8.142;2023-02-28T12:50:41;7.83;;;2.47;;
18100;SDS011;9177;49.156;8.142;2023-02-28T12:53:09;5.50;;;2.47;;
18100;SDS011;9177;49.156;8.142;2023-02-28T12:55:44;10.15;;;2.53;;
18100;SDS011;9177;49.156;8.142;2023-02-28T12:58:19;5.00;;;2.45;;
18100;SDS011;9177;49.156;8.142;2023-02-28T13:00:58;6.00;;;2.30;;
18100;SDS011;9177;49.156;8.142;2023-02-28T13:03:45;5.15;;;2.28;;
18100;SDS011;9177;49.156;8.142;2023-02-28T13:06:28;5.15;;;2.25;;
18100;SDS011;9177;49.156;8.142;2023-02-28T13:09:08;4.33;;;2.10;;
18100;SDS011;9177;49.156;8.142;2023-02-28T13:11:42;5.35;;;2.15;;
18100;SDS011;9177;49.156;8.142;2023-02-28T13:14:18;7.05;;;2.53;;
18100;SDS011;9177;49.156;8.142;2023-02-28T13:16:55;5.53;;;2.30;;
18100;SDS011;9177;49.156;8.142;2023-02-28T13:19:25;4.70;;;2.15;;
18100;SDS011;9177;49.156;8.142;2023-02-28T13:21:54;4.87;;;1.87;;
18100;SDS011;9177;49.156;8.142;2023-02-28T13:27:23;5.73;;;2.43;;
18100;SDS011;9177;49.156;8.142;2023-02-28T13:29:58;4.83;;;2.20;;
18100;SDS011;9177;49.156;8.142;2023-02-28T13:32:31;5.72;;;2.28;;
18100;SDS011;9177;49.156;8.142;2023-02-28T13:35:14;6.05;;;2.30;;
18100;SDS011;9177;49.156;8.142;2023-02-28T13:38:09;6.70;;;2.63;;
18100;SDS011;9177;49.156;8.142;2023-02-28T13:44:07;5.28;;;2.10;;
18100;SDS011;9177;49.156;8.142;2023-02-28T13:46:35;3.57;;;2.00;;
18100;SDS011;9177;49.156;8.142;2023-02-28T13:49:25;3.60;;;2.17;;
18100;SDS011;9177;49.156;8.142;2023-02-28T13:51:53;4.65;;;2.28;;
18100;SDS011;9177;49.156;8.142;2023-02-28T13:54:32;5.50;;;2.37;;
18100;SDS011;9177;49.156;8.142;2023-02-28T13:57:12;3.87;;;2.10;;
18100;SDS011;9177;49.156;8.142;2023-02-28T13:59:56;4.00;;;2.23;;
18100;SDS011;9177;49.156;8.142;2023-02-28T14:02:42;6.10;;;2.25;;
18100;SDS011;9177;49.156;8.142;2023-02-28T14:05:27;5.97;;;2.20;;
18100;SDS011;9177;49.156;8.142;2023-02-28T14:07:58;2.87;;;1.80;;
18100;SDS011;9177;49.156;8.142;2023-02-28T14:10:31;3.27;;;2.10;;
18100;SDS011;9177;49.156;8.142;2023-02-28T14:13:01;4.15;;;2.40;;
18100;SDS011;9177;49.156;8.142;2023-02-28T14:15:48;5.72;;;2.10;;
18100;SDS011;9177;49.156;8.142;2023-02-28T14:18:28;6.18;;;2.58;;
18100;SDS011;9177;49.156;8.142;2023-02-28T14:20:58;3.78;;;2.03;;
18100;SDS011;9177;49.156;8.142;2023-02-28T14:23:41;3.47;;;2.05;;
18100;SDS011;9177;49.156;8.142;2023-02-28T14:26:43;4.32;;;2.03;;
18100;SDS011;9177;49.156;8.142;2023-02-28T14:29:30;2.40;;;2.00;;
18100;SDS011;9177;49.156;8.142;2023-02-28T14:32:15;2.55;;;2.03;;
18100;SDS011;9177;49.156;8.142;2023-02-28T14:34:52;2.33;;;2.13;;
18100;SDS011;9177;49.156;8.142;2023-02-28T14:37:25;8.63;;;2.15;;
18100;SDS011;9177;49.156;8.142;2023-02-28T14:39:55;5.65;;;2.50;;
18100;SDS011;9177;49.156;8.142;2023-02-28T14:42:27;2.72;;;2.03;;
18100;SDS011;9177;49.156;8.142;2023-02-28T14:44:56;3.85;;;2.03;;
18100;SDS011;9177;49.156;8.142;2023-02-28T14:47:25;5.57;;;2.10;;
18100;SDS011;9177;49.156;8.142;2023-02-28T14:49:55;3.00;;;2.03;;
18100;SDS011;9177;49.156;8.142;2023-02-28T14:52:23;5.13;;;1.90;;
18100;SDS011;9177;49.156;8.142;2023-02-28T14:54:52;2.58;;;1.75;;
18100;SDS011;9177;49.156;8.142;2023-02-28T14:57:21;4.88;;;2.00;;
18100;SDS011;9177;49.156;8.142;2023-02-28T14:59:57;4.00;;;2.33;;
18100;SDS011;9177;49.156;8.142;2023-02-28T15:02:29;3.63;;;2.50;;
18100;SDS011;9177;49.156;8.142;2023-02-28T15:04:57;6.57;;;3.28;;
18100;SDS011;9177;49.156;8.142;2023-02-28T15:07:26;8.52;;;3.17;;
18100;SDS011;9177;49.156;8.142;2023-02-28T15:12:45;7.17;;;2.80;;
18100;SDS011;9177;49.156;8.142;2023-02-28T15:15:17;10.85;;;3.35;;
18100;SDS011;9177;49.156;8.142;2023-02-28T15:17:49;6.93;;;2.80;;
18100;SDS011;9177;49.156;8.142;2023-02-28T15:20:18;7.47;;;2.73;;
18100;SDS011;9177;49.156;8.142;2023-02-28T15:22:46;6.60;;;2.95;;
18100;SDS011;9177;49.156;8.142;2023-02-28T15:25:17;6.43;;;2.70;;
18100;SDS011;9177;49.156;8.142;2023-02-28T15:27:46;6.13;;;3.00;;
18100;SDS011;9177;49.156;8.142;2023-02-28T15:30:17;4.93;;;2.70;;
18100;SDS011;9177;49.156;8.142;2023-02-28T15:35:44;9.50;;;2.80;;
18100;SDS011;9177;49.156;8.142;2023-02-28T15:38:13;4.10;;;2.70;;
18100;SDS011;9177;49.156;8.142;2023-02-28T15:40:43;5.43;;;2.80;;
18100;SDS011;9177;49.156;8.142;2023-02-28T15:43:14;5.47;;;2.78;;
18100;SDS011;9177;49.156;8.142;2023-02-28T15:45:44;4.90;;;2.50;;
18100;SDS011;9177;49.156;8.142;2023-02-28T15:48:15;6.05;;;2.70;;
18100;SDS011;9177;49.156;8.142;2023-02-28T15:50:46;5.05;;;2.80;;
18100;SDS011;9177;49.156;8.142;2023-02-28T15:53:16;5.75;;;2.67;;
18100;SDS011;9177;49.156;8.142;2023-02-28T15:55:45;8.60;;;3.53;;
18100;SDS011;9177;49.156;8.142;2023-02-28T15:58:20;6.67;;;2.60;;